Time;durP1;ratioP1;P1;durP2;ratioP2;P2;SDS_P1;SDS_P2;PMS_P1;PMS_P2;Temp;Humidity;BMP_temperature;BMP_pressure;BME280_temperature;BME280_humidity;BME280_pressure;Samples;Min_cycle;Max_cycle;Signal;HPM_P1;HPM_P2
2023/08/10 00:00:15;;;;;;;0.40;0.40;;;;;;;;;;5066268;28;20031;-64
2023/08/10 00:02:46;;;;;;;4.18;1.13;;;;;;;;;;5066407;28;20032;-64
2023/08/10 00:05:12;;;;;;;1.02;0.65;;;;;;;;;;5072318;28;20016;-64
2023/08/10 00:07:40;;;;;;;1.92;0.90;;;;;;;;;;5075557;28;20040;-64
2023/08/10 00:10:08;;;;;;;2.45;1.48;;;;;;;;;;5075256;28;20021;-64
2023/08/10 00:12:35;;;;;;;2.53;1.15;;;;;;;;;;5075286;28;20116;-63
2023/08/10 00:15:03;;;;;;;2.85;0.82;;;;;;;;;;5075229;28;20463;-64
2023/08/10 00:17:30;;;;;;;0.80;0.63;;;;;;;;;;5070113;28;20460;-64
2023/08/10 00:19:57;;;;;;;0.80;0.68;;;;;;;;;;5070176;28;20028;-64
2023/08/10 00:22:23;;;;;;;0.82;0.65;;;;;;;;;;5069740;28;20470;-64
2023/08/10 00:24:50;;;;;;;1.05;0.70;;;;;;;;;;5070021;28;20055;-66
2023/08/10 00:27:17;;;;;;;1.33;0.90;;;;;;;;;;5074737;28;20028;-67
2023/08/10 00:29:44;;;;;;;3.42;0.85;;;;;;;;;;5075147;28;20028;-67
2023/08/10 00:32:11;;;;;;;7.05;1.63;;;;;;;;;;5075129;28;20033;-66
2023/08/10 00:34:38;;;;;;;1.27;0.80;;;;;;;;;;5074232;28;20024;-65
2023/08/10 00:37:05;;;;;;;2.78;0.95;;;;;;;;;;5075036;28;20090;-65
2023/08/10 00:39:32;;;;;;;1.45;0.70;;;;;;;;;;5070082;28;20028;-65
2023/08/10 00:41:59;;;;;;;1.13;0.68;;;;;;;;;;5069886;28;20025;-64
2023/08/10 00:44:25;;;;;;;0.77;0.60;;;;;;;;;;5069901;28;20463;-65
2023/08/10 00:46:52;;;;;;;1.33;1.05;;;;;;;;;;5069468;28;20471;-65
2023/08/10 00:49:19;;;;;;;1.90;1.05;;;;;;;;;;5073775;28;20467;-66
2023/08/10 00:51:46;;;;;;;2.45;1.15;;;;;;;;;;5074515;28;20040;-64
2023/08/10 00:54:13;;;;;;;2.60;1.48;;;;;;;;;;5074841;28;20504;-64
2023/08/10 00:56:40;;;;;;;2.20;1.15;;;;;;;;;;5074604;28;20017;-64
2023/08/10 00:59:07;;;;;;;1.92;1.08;;;;;;;;;;5074344;28;20033;-64
2023/08/10 01:01:35;;;;;;;0.83;0.80;;;;;;;;;;5070049;28;20025;-64
2023/08/10 01:04:02;;;;;;;2.70;1.10;;;;;;;;;;5069562;28;20032;-64
2023/08/10 01:06:41;;;;;;;1.37;0.83;;;;;;;;;;5068964;28;20035;-64
2023/08/10 01:09:28;;;;;;;12.20;1.07;;;;;;;;;;5069611;28;20367;-64
2023/08/10 01:12:13;;;;;;;0.63;0.40;;;;;;;;;;5073932;28;20037;-64
2023/08/10 01:15:08;;;;;;;2.20;0.75;;;;;;;;;;5074409;28;20028;-64
2023/08/10 01:17:40;;;;;;;21.83;0.80;;;;;;;;;;5052629;28;20452;-64
2023/08/10 01:20:08;;;;;;;1.13;0.70;;;;;;;;;;5073859;28;20025;-63
2023/08/10 01:22:50;;;;;;;3.93;1.03;;;;;;;;;;5071758;28;20382;-64
2023/08/10 01:25:19;;;;;;;0.73;0.50;;;;;;;;;;5069148;28;20483;-64
2023/08/10 01:27:47;;;;;;;2.20;1.00;;;;;;;;;;5069025;28;20107;-64
2023/08/10 01:30:14;;;;;;;0.83;0.50;;;;;;;;;;5069179;28;20032;-64
2023/08/10 01:32:41;;;;;;;0.63;0.50;;;;;;;;;;5070531;28;20035;-64
2023/08/10 01:35:10;;;;;;;1.67;0.87;;;;;;;;;;5073627;28;20135;-64
2023/08/10 01:37:37;;;;;;;1.27;0.70;;;;;;;;;;5073916;28;20482;-64
2023/08/10 01:40:12;;;;;;;1.67;0.60;;;;;;;;;;5073799;28;20055;-64
2023/08/10 01:42:43;;;;;;;1.33;0.90;;;;;;;;;;5073795;28;20390;-63
2023/08/10 01:45:10;;;;;;;2.23;0.80;;;;;;;;;;5070530;28;20104;-63
2023/08/10 01:47:43;;;;;;;3.57;1.20;;;;;;;;;;5068009;28;20475;-63
2023/08/10 01:50:10;;;;;;;1.80;1.00;;;;;;;;;;5068544;28;20112;-64
2023/08/10 01:52:46;;;;;;;1.63;0.70;;;;;;;;;;5068359;28;20438;-63
2023/08/10 01:55:14;;;;;;;10.00;1.27;;;;;;;;;;5071156;28;20048;-64
2023/08/10 01:57:40;;;;;;;2.47;0.93;;;;;;;;;;5072836;28;20021;-65
2023/08/10 02:00:08;;;;;;;1.60;0.93;;;;;;;;;;5073099;28;20024;-64
2023/08/10 02:02:35;;;;;;;0.80;0.60;;;;;;;;;;5073259;28;20398;-63
2023/08/10 02:05:02;;;;;;;1.13;0.87;;;;;;;;;;5073113;28;20422;-64
2023/08/10 02:07:29;;;;;;;1.13;0.83;;;;;;;;;;5052170;28;20093;-64
2023/08/10 02:09:56;;;;;;;1.33;0.67;;;;;;;;;;5068095;28;20016;-64
2023/08/10 02:12:22;;;;;;;1.10;0.80;;;;;;;;;;5067619;28;20098;-63
2023/08/10 02:14:49;;;;;;;0.70;0.60;;;;;;;;;;5068111;28;20034;-63
2023/08/10 02:17:17;;;;;;;0.40;0.40;;;;;;;;;;5069886;28;20382;-65
2023/08/10 02:19:43;;;;;;;0.80;0.60;;;;;;;;;;5073036;28;20044;-64
2023/08/10 02:22:10;;;;;;;0.33;0.33;;;;;;;;;;5072789;28;20028;-64
2023/08/10 02:24:38;;;;;;;0.67;0.50;;;;;;;;;;5072906;28;20040;-65
2023/08/10 02:27:04;;;;;;;0.43;0.43;;;;;;;;;;5072099;28;20036;-64
2023/08/10 02:29:31;;;;;;;5.20;0.60;;;;;;;;;;5051162;28;20032;-65
2023/08/10 02:32:00;;;;;;;0.40;0.40;;;;;;;;;;5067659;28;20108;-65
2023/08/10 02:34:27;;;;;;;2.77;0.80;;;;;;;;;;5049732;28;20028;-64
2023/08/10 02:36:54;;;;;;;1.57;1.07;;;;;;;;;;5067767;28;20561;-65
2023/08/10 02:39:21;;;;;;;1.57;1.07;;;;;;;;;;5069381;28;20028;-65
2023/08/10 02:41:48;;;;;;;1.70;0.73;;;;;;;;;;5072773;28;20021;-65
2023/08/10 02:44:15;;;;;;;2.57;1.63;;;;;;;;;;5071753;28;20066;-65
2023/08/10 02:46:42;;;;;;;3.30;2.07;;;;;;;;;;5072814;28;20021;-65
2023/08/10 02:49:09;;;;;;;3.77;2.33;;;;;;;;;;5054301;28;20028;-65
2023/08/10 02:51:36;;;;;;;2.97;1.70;;;;;;;;;;5046049;28;20044;-65
2023/08/10 02:54:02;;;;;;;3.40;1.47;;;;;;;;;;5066165;28;20027;-65
2023/08/10 02:56:29;;;;;;;12.33;1.83;;;;;;;;;;5064983;28;20387;-64
2023/08/10 02:58:56;;;;;;;2.60;1.63;;;;;;;;;;5067208;28;20032;-66
2023/08/10 03:01:23;;;;;;;2.27;1.70;;;;;;;;;;5042756;28;20029;-65
2023/08/10 03:03:49;;;;;;;3.83;1.97;;;;;;;;;;5070378;28;20032;-64
2023/08/10 03:06:16;;;;;;;2.33;1.40;;;;;;;;;;5052567;28;20021;-64
2023/08/10 03:08:43;;;;;;;16.50;2.33;;;;;;;;;;5061845;28;20032;-64
2023/08/10 03:11:10;;;;;;;16.53;1.60;;;;;;;;;;5071688;28;20021;-65
2023/08/10 03:13:37;;;;;;;3.37;1.80;;;;;;;;;;5069765;28;20078;-65
2023/08/10 03:16:04;;;;;;;2.30;1.43;;;;;;;;;;5065134;28;20032;-65
2023/08/10 03:18:31;;;;;;;2.00;1.43;;;;;;;;;;5066280;28;20024;-65
2023/08/10 03:20:57;;;;;;;1.43;1.07;;;;;;;;;;5048195;28;20048;-65
2023/08/10 03:23:24;;;;;;;2.20;1.33;;;;;;;;;;5049062;28;20020;-65
2023/08/10 03:25:51;;;;;;;1.97;1.33;;;;;;;;;;5062339;28;20040;-65
2023/08/10 03:28:18;;;;;;;2.73;1.50;;;;;;;;;;5053097;28;20032;-66
2023/08/10 03:30:45;;;;;;;3.43;1.87;;;;;;;;;;5070096;28;20028;-66
2023/08/10 03:33:11;;;;;;;0.90;0.73;;;;;;;;;;5071223;28;20150;-66
2023/08/10 03:35:38;;;;;;;1.63;1.20;;;;;;;;;;5069783;28;20084;-66
2023/08/10 03:38:05;;;;;;;1.77;1.33;;;;;;;;;;5065195;28;20029;-66
2023/08/10 03:40:32;;;;;;;1.27;0.97;;;;;;;;;;5036797;28;20365;-65
2023/08/10 03:42:58;;;;;;;2.63;1.30;;;;;;;;;;5051102;28;20364;-65
2023/08/10 03:45:25;;;;;;;1.70;1.07;;;;;;;;;;5069626;28;20417;-65
2023/08/10 03:47:52;;;;;;;1.27;1.00;;;;;;;;;;5075644;28;20043;-66
2023/08/10 03:50:19;;;;;;;1.43;1.03;;;;;;;;;;5075850;28;20144;-65
2023/08/10 03:52:46;;;;;;;1.33;1.00;;;;;;;;;;5070251;28;20040;-65
2023/08/10 03:55:14;;;;;;;1.93;1.20;;;;;;;;;;5061638;28;20029;-69
2023/08/10 03:57:41;;;;;;;3.43;1.20;;;;;;;;;;5059260;28;20538;-69
2023/08/10 04:00:10;;;;;;;12.83;1.23;;;;;;;;;;5065876;28;20476;-69
2023/08/10 04:02:37;;;;;;;2.67;1.33;;;;;;;;;;5058396;28;20024;-65
2023/08/10 04:05:06;;;;;;;2.03;1.50;;;;;;;;;;5069373;28;20028;-65
2023/08/10 04:07:39;;;;;;;5.10;1.80;;;;;;;;;;5052802;28;20101;-65
2023/08/10 04:10:06;;;;;;;2.90;1.53;;;;;;;;;;5066876;28;20438;-65
2023/08/10 04:12:34;;;;;;;1.83;1.20;;;;;;;;;;5068945;28;20043;-65
2023/08/10 04:15:01;;;;;;;1.53;1.13;;;;;;;;;;5073888;28;20108;-65
2023/08/10 04:17:28;;;;;;;1.20;0.90;;;;;;;;;;5073088;28;20021;-65
2023/08/10 04:19:56;;;;;;;0.77;0.63;;;;;;;;;;5072865;28;20035;-65
2023/08/10 04:22:23;;;;;;;1.83;1.20;;;;;;;;;;5068925;28;20086;-65
2023/08/10 04:24:50;;;;;;;1.77;1.20;;;;;;;;;;5068031;28;20529;-65
2023/08/10 04:27:18;;;;;;;1.47;1.10;;;;;;;;;;5069423;28;20017;-65
2023/08/10 04:29:45;;;;;;;1.63;1.10;;;;;;;;;;5070476;28;20032;-65
2023/08/10 04:32:14;;;;;;;2.37;1.50;;;;;;;;;;5073839;28;20040;-67
2023/08/10 04:34:41;;;;;;;4.57;1.30;;;;;;;;;;5074558;28;20028;-65
2023/08/10 04:37:08;;;;;;;1.00;0.90;;;;;;;;;;5074778;28;20039;-65
2023/08/10 04:39:34;;;;;;;1.23;1.03;;;;;;;;;;5074292;28;20020;-65
2023/08/10 04:42:01;;;;;;;1.23;1.00;;;;;;;;;;5073360;28;20429;-65
2023/08/10 04:44:28;;;;;;;1.67;1.37;;;;;;;;;;5069459;28;20432;-65
2023/08/10 04:46:55;;;;;;;2.20;1.57;;;;;;;;;;5051453;28;20029;-65
2023/08/10 04:49:23;;;;;;;2.93;1.50;;;;;;;;;;5069072;28;20087;-65
2023/08/10 04:51:50;;;;;;;2.23;1.33;;;;;;;;;;5068196;28;20070;-65
2023/08/10 04:54:17;;;;;;;1.80;1.03;;;;;;;;;;5074196;28;20029;-65
2023/08/10 04:56:44;;;;;;;2.60;1.47;;;;;;;;;;5074436;28;20017;-65
2023/08/10 04:59:11;;;;;;;1.37;1.00;;;;;;;;;;5074610;28;20024;-65
2023/08/10 05:01:38;;;;;;;4.37;1.57;;;;;;;;;;5073893;28;20141;-65
2023/08/10 05:04:05;;;;;;;2.13;1.60;;;;;;;;;;5072915;28;20914;-66
2023/08/10 05:06:34;;;;;;;1.03;0.80;;;;;;;;;;5069126;28;20033;-65
2023/08/10 05:09:07;;;;;;;3.00;1.30;;;;;;;;;;5068852;28;20122;-65
2023/08/10 05:11:33;;;;;;;1.80;1.23;;;;;;;;;;5068527;28;20036;-65
2023/08/10 05:14:00;;;;;;;2.27;1.63;;;;;;;;;;5069221;28;20064;-65
2023/08/10 05:16:27;;;;;;;2.73;1.47;;;;;;;;;;5074123;28;20025;-65
2023/08/10 05:18:55;;;;;;;1.77;1.30;;;;;;;;;;5073492;28;20036;-65
2023/08/10 05:21:22;;;;;;;1.23;0.97;;;;;;;;;;5074196;28;20020;-65
2023/08/10 05:23:49;;;;;;;5.10;1.23;;;;;;;;;;5074029;28;20472;-65
2023/08/10 05:26:16;;;;;;;2.67;1.17;;;;;;;;;;5073327;28;20405;-65
2023/08/10 05:28:43;;;;;;;1.77;1.17;;;;;;;;;;5050300;28;20021;-65
2023/08/10 05:31:11;;;;;;;1.77;1.30;;;;;;;;;;5068566;28;20024;-65
2023/08/10 05:33:37;;;;;;;1.80;1.33;;;;;;;;;;5068196;28;20564;-65
2023/08/10 05:36:04;;;;;;;1.77;1.17;;;;;;;;;;5068342;28;20730;-65
2023/08/10 05:38:31;;;;;;;1.03;0.80;;;;;;;;;;5073510;28;20465;-66
2023/08/10 05:40:58;;;;;;;4.03;1.73;;;;;;;;;;5073572;28;20082;-65
2023/08/10 05:43:25;;;;;;;2.27;1.13;;;;;;;;;;5073735;28;20482;-65
2023/08/10 05:45:51;;;;;;;1.97;1.47;;;;;;;;;;5073250;28;20017;-64
2023/08/10 05:48:18;;;;;;;1.97;1.27;;;;;;;;;;5072960;28;20107;-64
2023/08/10 05:50:45;;;;;;;2.20;1.30;;;;;;;;;;5068087;28;20194;-66
2023/08/10 05:53:12;;;;;;;2.03;1.30;;;;;;;;;;5068066;28;20035;-65
2023/08/10 05:55:39;;;;;;;2.57;1.50;;;;;;;;;;5067861;28;20059;-65
2023/08/10 05:58:06;;;;;;;5.73;1.80;;;;;;;;;;5067954;28;20017;-65
2023/08/10 06:00:32;;;;;;;2.30;1.73;;;;;;;;;;5073318;28;20128;-64
2023/08/10 06:02:59;;;;;;;1.73;1.23;;;;;;;;;;5073100;28;20025;-65
2023/08/10 06:05:26;;;;;;;4.53;1.43;;;;;;;;;;5072978;28;20427;-65
2023/08/10 06:07:53;;;;;;;2.13;1.33;;;;;;;;;;5072425;28;20081;-65
2023/08/10 06:10:20;;;;;;;2.20;1.50;;;;;;;;;;5072664;28;20032;-64
2023/08/10 06:12:47;;;;;;;2.23;1.53;;;;;;;;;;5067801;28;20501;-65
2023/08/10 06:15:15;;;;;;;4.27;2.13;;;;;;;;;;5067899;28;20036;-65
2023/08/10 06:17:42;;;;;;;2.63;1.67;;;;;;;;;;5067666;28;20051;-64
2023/08/10 06:20:16;;;;;;;2.57;1.70;;;;;;;;;;5067352;28;20025;-65
2023/08/10 06:22:44;;;;;;;3.75;2.05;;;;;;;;;;5072759;28;20032;-65
2023/08/10 06:25:12;;;;;;;5.20;1.87;;;;;;;;;;5072831;28;20025;-64
2023/08/10 06:27:39;;;;;;;10.57;1.90;;;;;;;;;;5072819;28;20463;-64
2023/08/10 06:30:06;;;;;;;3.10;2.10;;;;;;;;;;5072361;28;20039;-65
2023/08/10 06:32:37;;;;;;;2.20;1.53;;;;;;;;;;5072041;28;20383;-65
2023/08/10 06:35:04;;;;;;;2.83;1.70;;;;;;;;;;5066688;28;20058;-66
2023/08/10 06:37:32;;;;;;;2.40;1.23;;;;;;;;;;5067231;28;20107;-65
2023/08/10 06:39:59;;;;;;;2.13;1.30;;;;;;;;;;5067209;28;20027;-65
2023/08/10 06:42:26;;;;;;;3.33;2.10;;;;;;;;;;5067220;28;20051;-64
2023/08/10 06:44:53;;;;;;;5.23;1.97;;;;;;;;;;5071892;28;20012;-64
2023/08/10 06:47:20;;;;;;;2.33;1.67;;;;;;;;;;5072650;28;20035;-64
2023/08/10 06:49:46;;;;;;;2.43;1.40;;;;;;;;;;5072588;28;20035;-64
2023/08/10 06:52:13;;;;;;;3.10;1.70;;;;;;;;;;5072078;28;20068;-65
2023/08/10 06:54:40;;;;;;;2.57;1.83;;;;;;;;;;5072283;28;20032;-64
2023/08/10 06:57:07;;;;;;;2.33;1.43;;;;;;;;;;5066850;28;20025;-65
2023/08/10 06:59:33;;;;;;;3.97;1.90;;;;;;;;;;5049045;28;20054;-65
2023/08/10 07:02:01;;;;;;;2.50;1.70;;;;;;;;;;5067044;28;20095;-64
2023/08/10 07:04:28;;;;;;;3.03;1.80;;;;;;;;;;5066890;28;20020;-65
2023/08/10 07:06:55;;;;;;;8.23;2.23;;;;;;;;;;5071269;28;20033;-64
2023/08/10 07:09:25;;;;;;;9.07;1.70;;;;;;;;;;5072039;28;20033;-65
2023/08/10 07:11:52;;;;;;;3.57;1.73;;;;;;;;;;5072236;28;20090;-64
2023/08/10 07:14:18;;;;;;;2.13;1.63;;;;;;;;;;5071915;28;20107;-65
2023/08/10 07:16:45;;;;;;;3.07;1.37;;;;;;;;;;5071862;28;20395;-65
2023/08/10 07:19:12;;;;;;;1.77;1.60;;;;;;;;;;5066975;28;20024;-65
2023/08/10 07:21:39;;;;;;;1.67;1.13;;;;;;;;;;5065953;28;20029;-65
2023/08/10 07:24:06;;;;;;;2.23;1.50;;;;;;;;;;5066869;28;20028;-64
2023/08/10 07:26:33;;;;;;;4.00;1.77;;;;;;;;;;5066831;28;20024;-65
2023/08/10 07:29:00;;;;;;;12.53;1.60;;;;;;;;;;5071111;28;20033;-65
2023/08/10 07:31:31;;;;;;;2.13;1.47;;;;;;;;;;5072086;28;20028;-64
2023/08/10 07:33:59;;;;;;;2.97;1.73;;;;;;;;;;5071664;28;20032;-64
2023/08/10 07:36:26;;;;;;;3.57;1.87;;;;;;;;;;5071654;28;20020;-66
2023/08/10 07:38:55;;;;;;;4.20;2.53;;;;;;;;;;5072024;28;20032;-64
2023/08/10 07:41:23;;;;;;;2.93;1.83;;;;;;;;;;5066643;28;20020;-64
2023/08/10 07:43:50;;;;;;;2.87;1.87;;;;;;;;;;5066581;28;20039;-65
2023/08/10 07:46:16;;;;;;;6.63;2.33;;;;;;;;;;5052802;28;20041;-65
2023/08/10 07:48:43;;;;;;;4.40;1.70;;;;;;;;;;5066639;28;20407;-64
2023/08/10 07:51:10;;;;;;;9.13;2.60;;;;;;;;;;5070704;28;20104;-65
2023/08/10 07:53:37;;;;;;;1.93;1.37;;;;;;;;;;5071769;28;20028;-64
2023/08/10 07:56:04;;;;;;;4.20;2.33;;;;;;;;;;5071601;28;20036;-64
2023/08/10 07:58:31;;;;;;;3.13;1.87;;;;;;;;;;5071924;28;20039;-64
2023/08/10 08:00:58;;;;;;;8.40;2.07;;;;;;;;;;5071797;28;20475;-64
2023/08/10 08:03:25;;;;;;;2.20;1.23;;;;;;;;;;5066748;28;20542;-64
2023/08/10 08:05:52;;;;;;;4.53;2.23;;;;;;;;;;5066514;28;20059;-64
2023/08/10 08:08:19;;;;;;;3.00;2.23;;;;;;;;;;5065781;28;20021;-64
2023/08/10 08:10:45;;;;;;;3.37;2.07;;;;;;;;;;5066270;28;20103;-64
2023/08/10 08:13:12;;;;;;;5.07;3.00;;;;;;;;;;5070346;28;20044;-64
2023/08/10 08:15:39;;;;;;;3.73;2.37;;;;;;;;;;5071813;28;20029;-64
2023/08/10 08:18:24;;;;;;;4.13;2.13;;;;;;;;;;5071616;28;20379;-64
2023/08/10 08:20:51;;;;;;;4.13;2.55;;;;;;;;;;5071126;28;20090;-64
2023/08/10 08:23:17;;;;;;;2.63;1.90;;;;;;;;;;5071557;28;20033;-64
2023/08/10 08:25:44;;;;;;;3.60;2.10;;;;;;;;;;5066227;28;20028;-64
2023/08/10 08:28:11;;;;;;;2.23;1.67;;;;;;;;;;5068275;28;20111;-64
2023/08/10 08:30:38;;;;;;;3.77;2.30;;;;;;;;;;5069717;28;20025;-64
2023/08/10 08:33:05;;;;;;;4.40;2.03;;;;;;;;;;5069228;28;20040;-64
2023/08/10 08:35:31;;;;;;;2.80;2.10;;;;;;;;;;5073662;28;20479;-64
2023/08/10 08:37:58;;;;;;;1.97;1.50;;;;;;;;;;5074870;28;20020;-64
2023/08/10 08:40:25;;;;;;;4.90;2.27;;;;;;;;;;5074640;28;20505;-64
2023/08/10 08:42:53;;;;;;;3.93;2.37;;;;;;;;;;5074926;28;20349;-64
2023/08/10 08:45:19;;;;;;;1.70;1.27;;;;;;;;;;5074895;28;20029;-64
2023/08/10 08:47:47;;;;;;;2.37;1.47;;;;;;;;;;5069744;28;20028;-64
2023/08/10 08:50:15;;;;;;;26.10;2.53;;;;;;;;;;5068920;28;20028;-65
2023/08/10 08:52:44;;;;;;;3.20;1.90;;;;;;;;;;5069287;28;20063;-64
2023/08/10 08:55:12;;;;;;;2.83;1.87;;;;;;;;;;5069211;28;20017;-64
2023/08/10 08:57:39;;;;;;;2.87;2.00;;;;;;;;;;5073587;28;20633;-64
2023/08/10 09:00:06;;;;;;;5.93;3.10;;;;;;;;;;5074509;28;20483;-64
2023/08/10 09:02:33;;;;;;;5.93;2.43;;;;;;;;;;5074367;28;20463;-64
2023/08/10 09:05:01;;;;;;;7.50;2.43;;;;;;;;;;5073959;28;20024;-66
2023/08/10 09:07:28;;;;;;;2.63;1.83;;;;;;;;;;5074344;28;20028;-64
2023/08/10 09:09:55;;;;;;;3.77;2.90;;;;;;;;;;5051487;28;20031;-64
2023/08/10 09:12:38;;;;;;;2.17;1.83;;;;;;;;;;5068819;28;20098;-64
2023/08/10 09:15:05;;;;;;;4.37;3.00;;;;;;;;;;5068629;28;20056;-64
2023/08/10 09:17:32;;;;;;;2.27;1.80;;;;;;;;;;5068479;28;20375;-65
2023/08/10 09:19:59;;;;;;;3.53;2.33;;;;;;;;;;5073544;28;20028;-64
2023/08/10 09:22:29;;;;;;;5.73;2.53;;;;;;;;;;5073984;28;20086;-64
2023/08/10 09:24:56;;;;;;;3.80;2.57;;;;;;;;;;5074081;28;20020;-64
2023/08/10 09:27:24;;;;;;;3.50;1.60;;;;;;;;;;5073429;28;20028;-64
2023/08/10 09:29:51;;;;;;;2.83;2.00;;;;;;;;;;5073803;28;20079;-64
2023/08/10 09:32:22;;;;;;;4.80;2.53;;;;;;;;;;5068269;28;20033;-64
2023/08/10 09:34:49;;;;;;;3.37;2.40;;;;;;;;;;5068435;28;20028;-65
2023/08/10 09:37:16;;;;;;;3.27;2.20;;;;;;;;;;5068594;28;20074;-64
2023/08/10 09:39:43;;;;;;;3.33;2.40;;;;;;;;;;5067853;28;20111;-64
2023/08/10 09:42:09;;;;;;;2.23;1.77;;;;;;;;;;5072723;28;20095;-64
2023/08/10 09:44:46;;;;;;;14.70;2.50;;;;;;;;;;5073667;28;20029;-64
2023/08/10 09:47:14;;;;;;;2.70;1.90;;;;;;;;;;5073241;28;20036;-64
2023/08/10 09:50:05;;;;;;;3.03;1.97;;;;;;;;;;5073547;28;20498;-64
2023/08/10 09:52:33;;;;;;;3.10;1.87;;;;;;;;;;5072458;28;20097;-64
2023/08/10 09:55:01;;;;;;;2.77;1.53;;;;;;;;;;5067483;28;20032;-64
2023/08/10 09:57:30;;;;;;;2.53;2.00;;;;;;;;;;5067912;28;20028;-64
2023/08/10 09:59:57;;;;;;;2.77;1.87;;;;;;;;;;5068203;28;20124;-64
2023/08/10 10:02:24;;;;;;;4.77;2.33;;;;;;;;;;5068260;28;20020;-64
2023/08/10 10:04:51;;;;;;;9.23;2.07;;;;;;;;;;5073251;28;20048;-64
2023/08/10 10:07:23;;;;;;;3.10;1.80;;;;;;;;;;5073092;28;20031;-64
2023/08/10 10:09:50;;;;;;;2.33;1.60;;;;;;;;;;5072929;28;20093;-64
2023/08/10 10:12:18;;;;;;;1.60;1.33;;;;;;;;;;5073168;28;20040;-64
2023/08/10 10:14:46;;;;;;;3.10;1.90;;;;;;;;;;5071914;28;20024;-64
2023/08/10 10:17:14;;;;;;;2.23;1.33;;;;;;;;;;5067525;28;20395;-64
2023/08/10 10:19:41;;;;;;;2.00;1.40;;;;;;;;;;5067653;28;20017;-64
2023/08/10 10:22:08;;;;;;;2.00;1.33;;;;;;;;;;5066890;28;20039;-64
2023/08/10 10:24:39;;;;;;;1.73;1.13;;;;;;;;;;5067986;28;20475;-64
2023/08/10 10:27:11;;;;;;;1.47;1.10;;;;;;;;;;5072883;28;20040;-64
2023/08/10 10:29:51;;;;;;;3.27;1.90;;;;;;;;;;5072743;28;20028;-64
2023/08/10 10:32:19;;;;;;;2.10;1.37;;;;;;;;;;5072283;28;20163;-65
2023/08/10 10:34:46;;;;;;;7.60;2.43;;;;;;;;;;5072370;28;20028;-64
2023/08/10 10:37:14;;;;;;;2.53;1.67;;;;;;;;;;5070778;28;20016;-64
2023/08/10 10:39:41;;;;;;;3.40;2.03;;;;;;;;;;5067210;28;20040;-64
2023/08/10 10:42:16;;;;;;;3.03;2.07;;;;;;;;;;5067293;28;20019;-64
2023/08/10 10:45:03;;;;;;;2.00;1.52;;;;;;;;;;5067436;28;20020;-64
2023/08/10 10:47:39;;;;;;;9.07;1.80;;;;;;;;;;5069151;28;20387;-63
2023/08/10 10:50:20;;;;;;;1.47;1.10;;;;;;;;;;5071797;28;20376;-64
2023/08/10 10:52:54;;;;;;;2.10;1.43;;;;;;;;;;5071752;28;20025;-64
2023/08/10 10:55:28;;;;;;;4.50;1.55;;;;;;;;;;5072644;28;20027;-64
2023/08/10 10:57:55;;;;;;;4.30;1.80;;;;;;;;;;5072190;28;20082;-64
2023/08/10 11:00:23;;;;;;;7.60;2.80;;;;;;;;;;5068360;28;20029;-64
2023/08/10 11:02:50;;;;;;;2.97;1.87;;;;;;;;;;5066958;28;20103;-64
2023/08/10 11:05:17;;;;;;;2.00;1.47;;;;;;;;;;5066573;28;20112;-64
2023/08/10 11:07:45;;;;;;;6.00;2.43;;;;;;;;;;5066838;28;20037;-64
2023/08/10 11:10:12;;;;;;;6.30;1.77;;;;;;;;;;5069843;28;20025;-64
2023/08/10 11:12:39;;;;;;;2.23;1.47;;;;;;;;;;5070790;28;20500;-64
2023/08/10 11:15:10;;;;;;;2.57;1.60;;;;;;;;;;5072027;28;20033;-63
2023/08/10 11:17:38;;;;;;;2.63;1.63;;;;;;;;;;5072194;28;20028;-63
2023/08/10 11:20:10;;;;;;;3.87;2.17;;;;;;;;;;5071790;28;20028;-64
2023/08/10 11:22:39;;;;;;;3.70;1.90;;;;;;;;;;5067601;28;20379;-64
2023/08/10 11:25:12;;;;;;;5.17;2.00;;;;;;;;;;5067028;28;20085;-64
2023/08/10 11:27:41;;;;;;;2.03;1.33;;;;;;;;;;5066782;28;20103;-63
2023/08/10 11:30:09;;;;;;;1.93;1.47;;;;;;;;;;5048668;28;20387;-65
2023/08/10 11:32:40;;;;;;;2.20;1.43;;;;;;;;;;5070290;28;20564;-64
2023/08/10 11:35:08;;;;;;;2.40;1.67;;;;;;;;;;5071843;28;20032;-64
2023/08/10 11:37:35;;;;;;;6.70;2.30;;;;;;;;;;5071978;28;20029;-63
2023/08/10 11:40:12;;;;;;;2.50;1.73;;;;;;;;;;5072077;28;20028;-64
2023/08/10 11:42:43;;;;;;;3.73;1.90;;;;;;;;;;5071859;28;20028;-66
2023/08/10 11:45:19;;;;;;;3.67;1.20;;;;;;;;;;5066640;28;20091;-63
2023/08/10 11:47:47;;;;;;;1.67;1.30;;;;;;;;;;5066344;28;20119;-63
2023/08/10 11:50:16;;;;;;;3.60;2.20;;;;;;;;;;5066689;28;20379;-64
2023/08/10 11:52:43;;;;;;;1.47;1.10;;;;;;;;;;5066645;28;20043;-63
2023/08/10 11:55:14;;;;;;;3.90;1.50;;;;;;;;;;5070958;28;20039;-64
2023/08/10 11:57:46;;;;;;;1.70;1.07;;;;;;;;;;5071759;28;20100;-64
2023/08/10 12:00:34;;;;;;;7.37;1.43;;;;;;;;;;5071533;28;20043;-63
2023/08/10 12:03:13;;;;;;;6.77;1.60;;;;;;;;;;5075328;28;20538;-64
2023/08/10 12:05:51;;;;;;;4.13;1.90;;;;;;;;;;5073899;28;20020;-64
2023/08/10 12:08:25;;;;;;;4.33;1.30;;;;;;;;;;5069979;28;20024;-64
2023/08/10 12:11:02;;;;;;;2.57;1.33;;;;;;;;;;5070168;28;20036;-64
2023/08/10 12:13:29;;;;;;;3.23;1.93;;;;;;;;;;5070110;28;20524;-64
2023/08/10 12:15:57;;;;;;;8.40;2.00;;;;;;;;;;5071433;28;20079;-63
2023/08/10 12:18:25;;;;;;;3.60;1.67;;;;;;;;;;5075168;28;20078;-64
2023/08/10 12:20:52;;;;;;;2.47;1.83;;;;;;;;;;5075281;28;20111;-63
2023/08/10 12:23:20;;;;;;;2.27;1.77;;;;;;;;;;5075374;28;20055;-63
2023/08/10 12:25:50;;;;;;;7.67;1.13;;;;;;;;;;5074880;28;20036;-65
2023/08/10 12:28:18;;;;;;;1.83;1.40;;;;;;;;;;5052757;28;20103;-64
2023/08/10 12:30:45;;;;;;;1.17;0.80;;;;;;;;;;5049878;28;20021;-64
2023/08/10 12:33:13;;;;;;;1.87;1.20;;;;;;;;;;5049596;28;20070;-64
2023/08/10 12:35:40;;;;;;;1.07;0.90;;;;;;;;;;5049568;28;20032;-63
2023/08/10 12:38:07;;;;;;;1.63;1.20;;;;;;;;;;5056541;28;20025;-64
2023/08/10 12:40:34;;;;;;;0.80;0.63;;;;;;;;;;5074754;28;20024;-65
2023/08/10 12:43:01;;;;;;;31.43;1.63;;;;;;;;;;5075055;28;20032;-63
2023/08/10 12:45:28;;;;;;;8.97;1.20;;;;;;;;;;5074841;28;20028;-63
2023/08/10 12:47:55;;;;;;;1.77;1.07;;;;;;;;;;5074682;28;20020;-63
2023/08/10 12:50:22;;;;;;;1.50;0.93;;;;;;;;;;5072158;28;20031;-64
2023/08/10 12:52:49;;;;;;;1.77;0.93;;;;;;;;;;5069106;28;20036;-63
2023/08/10 12:55:17;;;;;;;1.27;0.83;;;;;;;;;;5068827;28;20027;-64
2023/08/10 12:57:44;;;;;;;1.23;0.80;;;;;;;;;;5069325;28;20020;-64
2023/08/10 13:00:13;;;;;;;0.83;0.47;;;;;;;;;;5070863;28;20417;-63
2023/08/10 13:02:40;;;;;;;1.33;0.90;;;;;;;;;;5074456;28;20028;-64
2023/08/10 13:05:07;;;;;;;7.00;1.00;;;;;;;;;;5074167;28;20033;-63
2023/08/10 13:07:35;;;;;;;1.03;0.80;;;;;;;;;;5074321;28;20075;-65
2023/08/10 13:10:02;;;;;;;4.00;0.97;;;;;;;;;;5074028;28;20024;-64
2023/08/10 13:12:29;;;;;;;0.60;0.60;;;;;;;;;;5071415;28;20032;-64
2023/08/10 13:14:56;;;;;;;2.80;1.00;;;;;;;;;;5068496;28;20033;-64
2023/08/10 13:17:23;;;;;;;3.13;0.77;;;;;;;;;;5068853;28;20361;-64
2023/08/10 13:19:51;;;;;;;1.30;0.97;;;;;;;;;;5068998;28;20017;-64
2023/08/10 13:22:18;;;;;;;1.10;0.80;;;;;;;;;;5070193;28;20486;-64
2023/08/10 13:24:46;;;;;;;1.57;0.97;;;;;;;;;;5073691;28;20025;-63
2023/08/10 13:27:13;;;;;;;3.77;1.20;;;;;;;;;;5073653;28;20048;-64
2023/08/10 13:29:40;;;;;;;5.40;2.70;;;;;;;;;;5074134;28;20027;-65
2023/08/10 13:32:08;;;;;;;4.30;2.43;;;;;;;;;;5073187;28;20040;-64
2023/08/10 13:34:35;;;;;;;4.30;3.43;;;;;;;;;;5071999;28;20016;-64
2023/08/10 13:37:02;;;;;;;4.73;3.50;;;;;;;;;;5067945;28;20103;-64
2023/08/10 13:39:29;;;;;;;5.67;3.90;;;;;;;;;;5068393;28;20027;-64
2023/08/10 13:41:56;;;;;;;12.37;3.10;;;;;;;;;;5049730;28;20024;-65
2023/08/10 13:44:23;;;;;;;6.23;3.10;;;;;;;;;;5068323;28;20127;-64
2023/08/10 13:46:49;;;;;;;4.30;2.00;;;;;;;;;;5056282;28;20119;-64
2023/08/10 13:49:16;;;;;;;6.87;2.67;;;;;;;;;;5058088;28;20068;-64
2023/08/10 13:51:44;;;;;;;4.53;2.67;;;;;;;;;;5069149;28;20487;-65
2023/08/10 13:54:11;;;;;;;30.40;3.57;;;;;;;;;;5061960;28;20377;-64
2023/08/10 13:56:57;;;;;;;6.27;2.00;;;;;;;;;;5050770;28;20044;-66
2023/08/10 13:59:27;;;;;;;3.13;1.90;;;;;;;;;;5066783;28;20079;-64
2023/08/10 14:01:54;;;;;;;3.97;2.00;;;;;;;;;;5066144;28;20036;-65
2023/08/10 14:04:21;;;;;;;5.07;2.43;;;;;;;;;;5067554;28;20162;-64
2023/08/10 14:06:49;;;;;;;10.97;1.60;;;;;;;;;;5069780;28;20020;-66
2023/08/10 14:09:16;;;;;;;2.00;1.20;;;;;;;;;;5054114;28;20145;-65
2023/08/10 14:11:47;;;;;;;3.27;2.07;;;;;;;;;;5053060;28;20025;-65
2023/08/10 14:14:16;;;;;;;1.17;0.83;;;;;;;;;;5059564;28;20013;-65
2023/08/10 14:16:44;;;;;;;1.90;1.20;;;;;;;;;;5037467;28;20021;-65
2023/08/10 14:19:11;;;;;;;2.20;1.27;;;;;;;;;;5056823;28;20035;-65
2023/08/10 14:21:39;;;;;;;2.23;1.70;;;;;;;;;;5046758;28;20013;-65
2023/08/10 14:24:06;;;;;;;2.10;1.40;;;;;;;;;;5046912;28;20024;-65
2023/08/10 14:26:34;;;;;;;4.20;1.37;;;;;;;;;;5054401;28;20075;-66
2023/08/10 14:29:01;;;;;;;2.33;1.47;;;;;;;;;;5054578;28;20024;-66
2023/08/10 14:31:28;;;;;;;3.13;1.93;;;;;;;;;;5038120;28;20051;-65
2023/08/10 14:33:54;;;;;;;1.90;1.37;;;;;;;;;;5063937;28;20036;-64
2023/08/10 14:36:21;;;;;;;2.90;1.47;;;;;;;;;;5058408;28;20081;-66
2023/08/10 14:38:48;;;;;;;1.70;1.00;;;;;;;;;;5041392;28;20032;-65
2023/08/10 14:41:15;;;;;;;4.27;1.77;;;;;;;;;;5065975;28;20036;-65
2023/08/10 14:43:41;;;;;;;3.47;1.77;;;;;;;;;;5056769;28;20437;-65
2023/08/10 14:46:08;;;;;;;4.47;2.13;;;;;;;;;;5042859;28;20024;-65
2023/08/10 14:48:35;;;;;;;1.93;1.47;;;;;;;;;;5056624;28;20507;-66